Time;durP1;ratioP1;P1;durP2;ratioP2;P2;SDS_P1;SDS_P2;PMS_P1;PMS_P2;Temp;Humidity;BMP_temperature;BMP_pressure;BME280_temperature;BME280_humidity;BME280_pressure;Samples;Min_cycle;Max_cycle;Signal;HPM_P1;HPM_P2
2022/08/31 00:05:46;;;;;;;14.88;14.02;;;15.80;99.90;;;;;;5004774;28;20046;-79
2022/08/31 00:08:14;;;;;;;15.18;14.40;;;15.70;99.90;;;;;;4992719;28;20046;-79
2022/08/31 00:10:44;;;;;;;14.15;13.55;;;15.70;99.90;;;;;;4995785;28;20184;-78
2022/08/31 00:13:11;;;;;;;15.30;14.45;;;15.70;99.90;;;;;;4996869;28;20049;-80
2022/08/31 00:15:39;;;;;;;15.23;14.43;;;15.70;99.90;;;;;;4989520;28;20053;-79
2022/08/31 00:18:06;;;;;;;15.75;14.82;;;15.70;99.90;;;;;;4992668;28;20625;-77
2022/08/31 00:20:33;;;;;;;16.05;15.20;;;15.70;99.90;;;;;;4998042;28;20112;-78
2022/08/31 00:23:02;;;;;;;15.93;14.90;;;15.70;99.90;;;;;;4985647;28;20049;-78
2022/08/31 00:25:30;;;;;;;15.85;14.95;;;15.60;99.90;;;;;;4995486;28;20058;-78
2022/08/31 00:27:57;;;;;;;15.85;14.80;;;15.60;99.90;;;;;;4969104;28;20050;-78
2022/08/31 00:30:25;;;;;;;15.88;15.07;;;15.60;99.90;;;;;;4985002;28;20499;-78
2022/08/31 00:32:51;;;;;;;16.70;15.70;;;15.50;99.90;;;;;;4982677;28;20042;-77
2022/08/31 00:35:18;;;;;;;15.95;15.15;;;15.60;99.90;;;;;;4990520;28;20467;-77
2022/08/31 00:37:45;;;;;;;15.07;14.32;;;15.60;99.90;;;;;;4962560;28;20050;-77
2022/08/31 00:40:12;;;;;;;15.60;14.70;;;15.50;99.90;;;;;;4970793;28;20049;-77
2022/08/31 00:42:40;;;;;;;16.00;15.02;;;15.50;99.90;;;;;;4988640;28;20057;-78
2022/08/31 00:45:08;;;;;;;15.68;14.88;;;15.60;99.90;;;;;;4986074;28;20045;-76
2022/08/31 00:47:36;;;;;;;15.60;14.70;;;15.40;99.90;;;;;;4968347;28;20050;-78
2022/08/31 00:50:07;;;;;;;15.95;14.88;;;15.50;99.90;;;;;;4965674;28;20070;-77
2022/08/31 00:52:38;;;;;;;15.57;14.77;;;15.50;99.90;;;;;;4984473;28;20054;-78
2022/08/31 00:55:11;;;;;;;16.70;15.60;;;15.50;99.90;;;;;;4996956;28;20658;-78
2022/08/31 00:57:42;;;;;;;16.20;15.30;;;15.40;99.90;;;;;;4979544;28;20057;-77
2022/08/31 01:00:13;;;;;;;15.88;15.00;;;15.40;99.90;;;;;;4976546;28;20055;-77
2022/08/31 01:02:40;;;;;;;15.73;14.93;;;15.40;99.90;;;;;;4992131;28;20050;-78
2022/08/31 01:05:10;;;;;;;16.90;15.48;;;15.40;99.90;;;;;;4976752;28;20101;-78
2022/08/31 01:07:38;;;;;;;15.80;15.00;;;15.30;99.90;;;;;;4978500;28;20053;-78
2022/08/31 01:10:07;;;;;;;15.75;14.85;;;15.30;99.90;;;;;;4954540;28;20069;-78
2022/08/31 01:12:34;;;;;;;17.05;16.15;;;15.30;99.90;;;;;;4979232;28;20089;-77
2022/08/31 01:15:03;;;;;;;17.25;16.15;;;15.40;99.90;;;;;;4990940;28;20049;-78
2022/08/31 01:17:32;;;;;;;17.02;16.02;;;15.30;99.90;;;;;;4967686;28;20054;-77
2022/08/31 01:20:36;;;;;;;16.75;15.68;;;15.20;99.90;;;;;;4996917;28;20047;-77
2022/08/31 01:23:16;;;;;;;16.70;15.70;;;15.00;99.90;;;;;;4998188;28;20041;-78
2022/08/31 01:25:47;;;;;;;16.25;15.20;;;15.00;99.90;;;;;;4985549;28;20042;-78
2022/08/31 01:28:14;;;;;;;16.90;15.88;;;15.00;99.90;;;;;;4968319;28;20050;-78
2022/08/31 01:30:42;;;;;;;16.15;15.05;;;15.00;99.90;;;;;;4972926;28;20049;-78
2022/08/31 01:33:11;;;;;;;17.08;15.82;;;15.00;99.90;;;;;;5000927;28;20057;-77
2022/08/31 01:35:43;;;;;;;16.55;15.57;;;15.00;99.90;;;;;;4963494;28;20097;-78
2022/08/31 01:38:12;;;;;;;16.35;15.32;;;14.80;99.90;;;;;;4996041;28;20291;-77
2022/08/31 01:40:56;;;;;;;15.18;14.48;;;14.80;99.90;;;;;;4996304;28;20053;-77
2022/08/31 01:43:23;;;;;;;15.55;14.68;;;14.70;99.90;;;;;;4975971;28;20054;-77
2022/08/31 01:45:51;;;;;;;15.70;14.82;;;14.70;99.90;;;;;;4960856;28;20054;-77
2022/08/31 01:48:19;;;;;;;15.70;14.57;;;14.80;99.90;;;;;;4978483;28;20069;-77
2022/08/31 01:50:47;;;;;;;15.25;14.30;;;14.70;99.90;;;;;;4964939;28;20676;-78
2022/08/31 01:53:15;;;;;;;15.45;14.63;;;14.80;99.90;;;;;;4961312;28;20082;-78
2022/08/31 01:55:42;;;;;;;15.48;14.27;;;14.70;99.90;;;;;;4975812;28;20448;-78
2022/08/31 01:58:09;;;;;;;15.48;14.45;;;14.70;99.90;;;;;;4977414;28;20129;-78
2022/08/31 02:00:51;;;;;;;16.38;15.38;;;14.80;99.90;;;;;;4982708;28;20046;-78
2022/08/31 02:03:19;;;;;;;15.77;14.77;;;14.70;99.90;;;;;;4994199;28;20061;-78
2022/08/31 02:05:46;;;;;;;16.20;15.20;;;14.70;99.90;;;;;;4954398;28;20659;-78
2022/08/31 02:08:12;;;;;;;16.17;15.35;;;14.60;99.90;;;;;;4980446;28;20451;-79
2022/08/31 02:10:39;;;;;;;15.65;14.85;;;14.50;99.90;;;;;;4987208;28;20111;-78
2022/08/31 02:13:08;;;;;;;16.05;15.25;;;14.50;99.90;;;;;;4978503;28;20042;-78
2022/08/31 02:15:37;;;;;;;15.82;14.93;;;14.50;99.90;;;;;;4981862;28;20070;-78
2022/08/31 02:18:05;;;;;;;15.98;14.98;;;14.40;99.90;;;;;;4992458;28;20180;-78
2022/08/31 02:20:31;;;;;;;15.98;15.07;;;14.30;99.90;;;;;;4980819;28;20050;-78
2022/08/31 02:23:02;;;;;;;16.70;15.48;;;14.30;99.90;;;;;;4953523;28;20062;-78
2022/08/31 02:25:29;;;;;;;16.25;15.35;;;14.30;99.90;;;;;;4982626;28;20582;-77
2022/08/31 02:27:57;;;;;;;16.60;15.70;;;14.20;99.90;;;;;;4990144;28;20066;-78
2022/08/31 02:30:24;;;;;;;16.48;15.32;;;14.20;99.90;;;;;;4990620;28;20054;-78
2022/08/31 02:32:50;;;;;;;17.40;16.30;;;14.20;99.90;;;;;;4977418;28;20251;-78
2022/08/31 02:35:17;;;;;;;16.35;15.35;;;14.20;99.90;;;;;;4956714;28;20072;-77
2022/08/31 02:37:44;;;;;;;16.05;15.18;;;14.10;99.90;;;;;;4967620;28;20054;-78
2022/08/31 02:40:13;;;;;;;16.85;15.57;;;14.10;99.90;;;;;;4991966;28;20047;-76
2022/08/31 02:42:41;;;;;;;16.48;15.18;;;14.10;99.90;;;;;;4957989;28;20060;-77
2022/08/31 02:45:21;;;;;;;17.00;16.02;;;14.00;99.90;;;;;;4975442;28;20050;-77
2022/08/31 02:47:48;;;;;;;15.73;14.77;;;13.90;99.90;;;;;;4991979;28;20038;-77
2022/08/31 02:50:33;;;;;;;15.27;14.40;;;13.90;99.90;;;;;;4991770;28;20058;-77
2022/08/31 02:52:59;;;;;;;14.55;13.65;;;13.90;99.90;;;;;;4992569;28;20042;-78
2022/08/31 02:55:28;;;;;;;14.90;14.10;;;13.90;99.90;;;;;;4969497;28;20832;-77
2022/08/31 02:57:55;;;;;;;14.90;14.00;;;13.80;99.90;;;;;;4966280;28;20268;-77
2022/08/31 03:00:23;;;;;;;14.75;13.85;;;13.80;99.90;;;;;;4993411;28;20110;-78
2022/08/31 03:02:49;;;;;;;14.60;13.80;;;13.60;99.90;;;;;;4984339;28;20634;-77
2022/08/31 03:05:19;;;;;;;15.60;14.60;;;13.60;99.90;;;;;;4971952;28;20124;-78
2022/08/31 03:07:48;;;;;;;15.85;14.85;;;13.60;99.90;;;;;;4980269;28;20048;-77
2022/08/31 03:10:18;;;;;;;15.48;14.57;;;13.50;99.90;;;;;;4967439;28;20267;-78
2022/08/31 03:12:47;;;;;;;15.50;14.35;;;13.60;99.90;;;;;;4982596;28;20068;-78
2022/08/31 03:15:15;;;;;;;15.75;14.70;;;13.50;99.90;;;;;;4974270;28;20072;-80
2022/08/31 03:17:44;;;;;;;15.50;14.50;;;13.50;99.90;;;;;;4976763;28;20050;-77
2022/08/31 03:20:13;;;;;;;14.85;13.90;;;13.40;99.90;;;;;;4977106;28;20504;-78
2022/08/31 03:22:40;;;;;;;15.48;14.48;;;13.40;99.90;;;;;;4985032;28;20164;-78
2022/08/31 03:25:12;;;;;;;15.50;14.45;;;13.30;99.90;;;;;;4965633;28;20275;-78
2022/08/31 03:27:39;;;;;;;14.63;13.73;;;13.30;99.90;;;;;;4964487;28;20536;-78
2022/08/31 03:30:10;;;;;;;14.40;13.27;;;13.20;99.90;;;;;;4978434;28;20569;-78
2022/08/31 03:32:39;;;;;;;13.40;12.48;;;13.40;99.90;;;;;;4960931;28;20484;-78
2022/08/31 03:35:10;;;;;;;11.88;11.18;;;13.60;99.90;;;;;;4988142;28;20074;-78
2022/08/31 03:37:37;;;;;;;12.77;11.82;;;13.70;99.90;;;;;;4982907;28;20046;-78
2022/08/31 03:40:04;;;;;;;11.80;11.00;;;13.70;99.90;;;;;;4971844;28;20112;-78
2022/08/31 03:42:32;;;;;;;12.18;11.35;;;13.60;99.90;;;;;;4967463;28;20188;-78
2022/08/31 03:44:59;;;;;;;12.32;11.52;;;13.70;99.90;;;;;;4990920;28;20050;-78
2022/08/31 03:47:29;;;;;;;13.27;12.18;;;13.70;99.90;;;;;;4964739;28;20054;-78
2022/08/31 03:49:58;;;;;;;13.38;12.23;;;13.70;99.90;;;;;;4970317;28;20054;-78
2022/08/31 03:52:32;;;;;;;13.38;12.45;;;13.60;99.90;;;;;;4981891;28;20140;-78
2022/08/31 03:55:07;;;;;;;13.75;12.88;;;13.50;99.90;;;;;;4965192;28;20042;-78
2022/08/31 03:57:34;;;;;;;13.98;13.18;;;13.50;99.90;;;;;;4999694;28;20544;-78
2022/08/31 04:00:03;;;;;;;14.27;13.27;;;13.40;99.90;;;;;;4974240;28;20197;-78
2022/08/31 04:02:40;;;;;;;14.52;13.63;;;13.40;99.90;;;;;;4995657;28;20046;-78
2022/08/31 04:05:27;;;;;;;14.63;13.73;;;13.50;99.90;;;;;;4999888;28;20049;-78
2022/08/31 04:08:13;;;;;;;14.23;13.13;;;13.40;99.90;;;;;;4992663;28;20356;-78
2022/08/31 04:11:14;;;;;;;15.35;14.05;;;13.40;99.90;;;;;;4975728;28;20046;-78
2022/08/31 04:14:00;;;;;;;14.30;13.30;;;13.40;99.90;;;;;;4986998;28;20458;-78
2022/08/31 04:16:38;;;;;;;14.25;13.20;;;13.30;99.90;;;;;;4991980;28;20042;-78
2022/08/31 04:19:25;;;;;;;15.55;13.93;;;13.30;99.90;;;;;;4990822;28;20517;-77
2022/08/31 04:22:12;;;;;;;15.05;13.93;;;13.30;99.90;;;;;;4989118;28;20295;-78
2022/08/31 04:24:49;;;;;;;14.88;13.80;;;13.30;99.90;;;;;;4982695;28;20042;-78
2022/08/31 04:27:16;;;;;;;15.18;14.18;;;13.20;99.90;;;;;;4974617;28;20134;-78
2022/08/31 04:29:42;;;;;;;15.10;14.10;;;13.20;99.90;;;;;;4979473;28;20463;-78
2022/08/31 04:32:09;;;;;;;14.90;13.85;;;13.20;99.90;;;;;;4962940;28;20046;-78
2022/08/31 04:34:36;;;;;;;15.52;14.43;;;13.10;99.90;;;;;;4968406;28;20046;-78
2022/08/31 04:37:08;;;;;;;15.75;14.55;;;13.10;99.90;;;;;;4965870;28;20072;-78
2022/08/31 04:39:35;;;;;;;15.55;14.40;;;13.10;99.90;;;;;;4980972;28;20097;-78
2022/08/31 04:42:17;;;;;;;15.32;14.25;;;13.00;99.90;;;;;;4973006;28;20681;-78
2022/08/31 04:44:44;;;;;;;15.68;14.32;;;13.00;99.90;;;;;;4965547;28;20535;-78
2022/08/31 04:47:11;;;;;;;15.95;14.70;;;12.90;99.90;;;;;;4976999;28;20472;-77
2022/08/31 04:49:40;;;;;;;16.83;15.60;;;13.00;99.90;;;;;;4984005;28;20094;-78
2022/08/31 04:52:07;;;;;;;14.98;13.63;;;13.00;99.90;;;;;;4993543;28;20110;-78
2022/08/31 04:54:34;;;;;;;14.80;13.60;;;12.90;99.90;;;;;;4989341;28;20038;-78
2022/08/31 04:57:01;;;;;;;15.82;14.27;;;13.00;99.90;;;;;;4990621;28;20046;-78
2022/08/31 04:59:31;;;;;;;15.52;14.23;;;13.10;99.90;;;;;;4976742;28;20100;-77
2022/08/31 05:02:36;;;;;;;14.63;13.52;;;12.90;99.90;;;;;;4995839;28;20128;-78
2022/08/31 05:05:11;;;;;;;15.23;14.02;;;12.90;99.90;;;;;;4981961;28;20042;-78
2022/08/31 05:07:41;;;;;;;14.82;13.77;;;12.90;99.90;;;;;;4965333;28;20053;-78
2022/08/31 05:10:08;;;;;;;15.18;13.75;;;13.00;99.90;;;;;;4964357;28;20062;-78
2022/08/31 05:12:35;;;;;;;14.73;13.18;;;13.00;99.90;;;;;;4986120;28;20045;-79
2022/08/31 05:15:06;;;;;;;14.30;13.15;;;13.00;99.90;;;;;;4992158;28;20049;-78
2022/08/31 05:17:32;;;;;;;13.90;12.95;;;12.90;99.90;;;;;;4984477;28;20048;-79
2022/08/31 05:19:59;;;;;;;14.90;13.60;;;13.00;99.90;;;;;;4960688;28;20132;-78
2022/08/31 05:22:28;;;;;;;14.90;13.65;;;12.90;99.90;;;;;;4979247;28;20034;-79
2022/08/31 05:24:56;;;;;;;13.45;12.40;;;12.90;99.90;;;;;;4989780;28;20141;-78
2022/08/31 05:27:23;;;;;;;14.25;13.00;;;12.90;99.90;;;;;;4980487;28;20041;-78
2022/08/31 05:29:50;;;;;;;14.88;13.77;;;12.90;99.90;;;;;;4986693;28;20141;-78
2022/08/31 05:32:39;;;;;;;13.65;12.55;;;12.90;99.90;;;;;;4991303;28;20049;-78
2022/08/31 05:35:08;;;;;;;14.93;13.82;;;12.90;99.90;;;;;;4981352;28;20062;-78
2022/08/31 05:37:36;;;;;;;15.00;13.75;;;12.90;99.90;;;;;;4961757;28;20129;-78
2022/08/31 05:40:04;;;;;;;13.82;12.93;;;12.90;99.90;;;;;;4986336;28;20073;-79
2022/08/31 05:42:31;;;;;;;14.48;13.38;;;12.90;99.90;;;;;;4975632;28;20390;-79
2022/08/31 05:44:58;;;;;;;16.17;14.77;;;12.90;99.90;;;;;;4975064;28;20137;-78
2022/08/31 05:47:25;;;;;;;14.85;13.80;;;13.00;99.90;;;;;;4989590;28;20169;-79
2022/08/31 05:49:52;;;;;;;15.82;14.63;;;13.00;99.90;;;;;;4988774;28;20116;-78
2022/08/31 05:52:20;;;;;;;15.18;13.85;;;13.20;99.90;;;;;;4981442;28;20072;-79
2022/08/31 05:54:51;;;;;;;16.55;15.32;;;13.20;99.90;;;;;;4975081;28;20048;-78
2022/08/31 05:57:18;;;;;;;14.80;13.85;;;13.20;99.90;;;;;;4991510;28;20045;-79
2022/08/31 05:59:51;;;;;;;17.13;15.82;;;13.30;99.90;;;;;;4967826;28;20050;-79
2022/08/31 06:02:17;;;;;;;16.23;15.00;;;13.50;99.90;;;;;;4991243;28;20054;-78
2022/08/31 06:04:44;;;;;;;16.40;15.10;;;13.60;99.90;;;;;;4977600;28;20042;-79
2022/08/31 06:07:11;;;;;;;16.50;15.15;;;13.60;99.90;;;;;;4993797;28;20092;-79
2022/08/31 06:09:43;;;;;;;16.02;14.93;;;13.70;99.90;;;;;;4991770;28;20137;-79
2022/08/31 06:12:14;;;;;;;16.05;14.50;;;13.90;99.90;;;;;;4995259;28;20577;-79
2022/08/31 06:14:40;;;;;;;16.40;15.20;;;14.00;99.90;;;;;;4980141;28;20153;-79
2022/08/31 06:17:15;;;;;;;15.15;13.93;;;14.10;99.90;;;;;;4999173;28;20042;-79
2022/08/31 06:19:42;;;;;;;15.43;14.25;;;14.30;99.90;;;;;;4975662;28;20046;-79
2022/08/31 06:22:09;;;;;;;16.38;15.13;;;14.50;99.90;;;;;;4983862;28;20052;-79
2022/08/31 06:24:37;;;;;;;16.10;14.95;;;14.60;99.90;;;;;;4962162;28;20104;-79
2022/08/31 06:27:06;;;;;;;16.45;15.32;;;14.70;99.90;;;;;;4985960;28;20050;-79
2022/08/31 06:29:35;;;;;;;17.73;16.48;;;14.60;99.90;;;;;;4970750;28;20034;-80
2022/08/31 06:32:08;;;;;;;17.55;16.30;;;14.60;99.90;;;;;;4980408;28;20047;-79
2022/08/31 06:34:41;;;;;;;17.52;16.38;;;14.70;99.90;;;;;;4988257;28;20042;-80
2022/08/31 06:37:36;;;;;;;17.38;15.98;;;14.80;99.90;;;;;;4985021;28;20518;-79
2022/08/31 06:40:06;;;;;;;18.60;17.30;;;15.00;99.90;;;;;;4983366;28;20412;-80
2022/08/31 06:42:58;;;;;;;18.90;17.42;;;15.00;99.90;;;;;;4989847;28;20042;-80
2022/08/31 06:45:46;;;;;;;17.77;16.58;;;15.20;99.90;;;;;;4999910;28;20093;-79
2022/08/31 06:48:33;;;;;;;19.33;17.80;;;15.20;99.90;;;;;;4989010;28;20571;-79
2022/08/31 06:51:01;;;;;;;18.73;17.55;;;15.40;99.90;;;;;;4996210;28;20036;-79
2022/08/31 06:53:30;;;;;;;19.00;17.80;;;15.50;99.90;;;;;;4995906;28;20042;-79
2022/08/31 06:56:22;;;;;;;19.85;18.45;;;15.50;99.90;;;;;;4974975;28;20109;-80
2022/08/31 06:59:08;;;;;;;19.27;17.88;;;15.60;99.90;;;;;;4981250;28;20077;-79
2022/08/31 07:01:52;;;;;;;20.30;19.10;;;15.50;99.90;;;;;;4986822;28;20517;-80
2022/08/31 07:04:35;;;;;;;19.83;18.48;;;15.60;99.90;;;;;;4991668;28;20074;-80
2022/08/31 07:07:05;;;;;;;20.27;18.90;;;15.70;99.90;;;;;;4993265;28;20153;-80
2022/08/31 07:09:34;;;;;;;20.85;19.20;;;15.70;99.90;;;;;;4994216;28;20046;-79
2022/08/31 07:12:02;;;;;;;20.60;19.13;;;15.80;99.90;;;;;;4966300;28;20070;-79
2022/08/31 07:14:30;;;;;;;20.42;19.02;;;15.90;99.90;;;;;;4986513;28;20057;-79
2022/08/31 07:16:58;;;;;;;20.23;18.92;;;16.20;99.90;;;;;;4963240;28;20050;-78
2022/08/31 07:19:26;;;;;;;21.27;19.88;;;16.20;99.90;;;;;;4977227;28;20069;-79
2022/08/31 07:21:57;;;;;;;21.23;19.73;;;16.40;99.90;;;;;;4980626;28;20124;-79
2022/08/31 07:24:28;;;;;;;20.55;19.38;;;16.30;99.90;;;;;;4979384;28;20520;-80
2022/08/31 07:27:13;;;;;;;21.90;20.50;;;16.50;99.90;;;;;;4967802;28;20514;-79
2022/08/31 07:29:51;;;;;;;;;;;16.70;99.90;;;;;;4994067;28;20046;-79
2022/08/31 07:32:18;;;;;;;22.90;21.45;;;16.60;99.90;;;;;;5001338;28;20251;-80
2022/08/31 07:34:48;;;;;;;22.52;21.08;;;16.90;99.90;;;;;;4969529;28;20041;-79
2022/08/31 07:43:14;;;;;;;24.58;23.08;;;17.50;99.90;;;;;;4974252;28;20049;-79
2022/08/31 07:45:43;;;;;;;23.90;22.23;;;17.20;99.90;;;;;;4990496;28;20129;-79
2022/08/31 07:48:14;;;;;;;24.95;23.15;;;17.10;99.90;;;;;;4993734;28;20319;-79
2022/08/31 07:50:59;;;;;;;23.45;22.05;;;17.10;99.90;;;;;;4969485;28;20057;-80
2022/08/31 07:53:40;;;;;;;23.42;21.90;;;16.70;99.90;;;;;;4978758;28;20137;-81
2022/08/31 07:56:24;;;;;;;23.90;22.45;;;16.90;99.90;;;;;;4966988;28;20558;-80
2022/08/31 07:59:11;;;;;;;25.88;24.15;;;17.60;99.90;;;;;;4985509;28;20050;-78
2022/08/31 08:01:40;;;;;;;28.52;25.75;;;17.60;99.90;;;;;;4977337;28;20282;-79
2022/08/31 08:04:12;;;;;;;25.92;24.23;;;17.30;99.90;;;;;;4996416;28;20145;-79
2022/08/31 08:06:59;;;;;;;27.77;25.88;;;17.70;99.90;;;;;;4993522;28;20257;-78
2022/08/31 08:09:48;;;;;;;26.08;24.38;;;18.10;99.90;;;;;;4983864;28;20046;-79
2022/08/31 08:12:35;;;;;;;25.83;24.17;;;18.00;99.90;;;;;;4970549;28;20053;-79
2022/08/31 08:15:14;;;;;;;25.60;23.90;;;17.80;99.90;;;;;;4979755;28;20527;-78
2022/08/31 08:18:04;;;;;;;26.23;24.50;;;17.60;99.90;;;;;;4989931;28;20500;-79
2022/08/31 08:20:39;;;;;;;26.23;24.63;;;17.90;99.90;;;;;;4978238;28;20550;-78
2022/08/31 08:23:12;;;;;;;26.83;25.02;;;18.40;99.90;;;;;;4977951;28;20114;-79
2022/08/31 08:26:09;;;;;;;27.85;26.02;;;18.80;99.90;;;;;;4987086;28;20314;-81
2022/08/31 08:29:06;;;;;;;27.88;25.85;;;18.80;99.90;;;;;;4989524;28;20455;-79
2022/08/31 08:31:44;;;;;;;27.55;25.52;;;18.50;99.90;;;;;;4989321;28;20101;-79
2022/08/31 08:34:12;;;;;;;26.67;25.15;;;18.40;99.90;;;;;;4981543;28;20411;-79
2022/08/31 08:36:39;;;;;;;26.50;24.70;;;18.30;99.90;;;;;;4973370;28;20105;-80
2022/08/31 08:39:09;;;;;;;26.52;24.92;;;18.40;99.90;;;;;;4965867;28;20248;-80
2022/08/31 08:41:48;;;;;;;26.13;24.48;;;18.70;99.90;;;;;;4971237;28;20039;-80
2022/08/31 08:44:17;;;;;;;27.00;25.35;;;19.20;99.90;;;;;;4972252;28;20050;-79
2022/08/31 08:46:53;;;;;;;26.55;24.85;;;18.70;99.90;;;;;;4982444;28;20049;-80
2022/08/31 08:49:28;;;;;;;25.85;24.35;;;18.30;99.90;;;;;;4988859;28;20480;-79
2022/08/31 08:52:22;;;;;;;25.65;24.05;;;18.70;99.90;;;;;;4984065;28;20061;-79
2022/08/31 08:54:50;;;;;;;26.02;24.30;;;19.20;99.90;;;;;;4978011;28;20053;-80
2022/08/31 08:57:24;;;;;;;26.23;24.63;;;18.60;99.90;;;;;;4992813;28;20038;-79
2022/08/31 08:59:57;;;;;;;26.27;24.77;;;18.70;99.90;;;;;;4965322;28;20038;-79
2022/08/31 09:02:32;;;;;;;25.45;24.05;;;18.80;99.90;;;;;;4965646;28;20046;-80
2022/08/31 09:05:24;;;;;;;26.52;24.83;;;18.80;99.90;;;;;;4977830;28;20121;-81
2022/08/31 09:07:58;;;;;;;25.42;24.02;;;18.80;99.90;;;;;;4977263;28;20042;-80
2022/08/31 09:10:34;;;;;;;26.20;24.50;;;18.80;99.90;;;;;;4985459;28;20042;-81
2022/08/31 09:13:20;;;;;;;25.13;23.52;;;18.90;99.90;;;;;;4968155;28;20049;-80
2022/08/31 09:15:55;;;;;;;24.77;23.35;;;19.00;99.90;;;;;;4986132;28;20080;-80
2022/08/31 09:18:42;;;;;;;24.75;23.25;;;18.70;99.90;;;;;;4983498;28;20064;-82
2022/08/31 09:21:28;;;;;;;24.33;22.95;;;19.20;99.90;;;;;;5000448;28;20042;-83
2022/08/31 09:24:08;;;;;;;23.70;22.27;;;19.60;99.90;;;;;;4988957;28;20053;-80
2022/08/31 09:27:16;;;;;;;24.20;22.70;;;19.50;99.90;;;;;;4979792;28;20042;-82
2022/08/31 09:29:53;;;;;;;24.60;23.10;;;19.70;99.90;;;;;;4967409;28;20113;-80
2022/08/31 09:32:30;;;;;;;24.35;22.95;;;19.50;99.90;;;;;;4979854;28;20042;-84
2022/08/31 09:35:22;;;;;;;25.08;23.52;;;19.00;99.90;;;;;;4981731;28;20489;-81
2022/08/31 09:38:02;;;;;;;24.63;23.23;;;18.90;99.90;;;;;;4993748;28;20088;-81
2022/08/31 09:40:38;;;;;;;24.25;22.90;;;18.50;99.90;;;;;;4982633;28;20079;-84
2022/08/31 09:43:33;;;;;;;23.52;22.10;;;18.90;99.90;;;;;;4967635;28;20054;-81
2022/08/31 09:46:08;;;;;;;24.60;23.20;;;19.80;99.90;;;;;;4969995;28;20077;-80
2022/08/31 09:48:45;;;;;;;;;;;19.80;99.90;;;;;;4988015;28;20124;-82
2022/08/31 09:51:35;;;;;;;24.27;22.88;;;19.90;99.90;;;;;;4972442;28;19922;-80
2022/08/31 09:57:04;;;;;;;24.50;23.17;;;19.40;99.90;;;;;;4991321;28;20144;-81
2022/08/31 09:59:36;;;;;;;24.05;22.63;;;19.70;99.90;;;;;;4983301;28;20042;-81
2022/08/31 10:02:25;;;;;;;24.83;23.23;;;19.80;99.90;;;;;;4997694;28;20049;-81
2022/08/31 10:04:54;;;;;;;25.00;23.38;;;19.80;99.90;;;;;;4986403;28;20042;-80
2022/08/31 10:07:47;;;;;;;24.75;22.98;;;19.80;99.90;;;;;;4981388;28;20130;-81
2022/08/31 10:10:25;;;;;;;23.58;22.27;;;20.00;99.90;;;;;;4981359;28;20042;-81
2022/08/31 10:13:14;;;;;;;25.15;23.75;;;20.30;99.90;;;;;;4990433;28;20039;-80
2022/08/31 10:15:57;;;;;;;23.65;22.35;;;20.40;99.90;;;;;;4979183;28;20078;-80
2022/08/31 10:18:58;;;;;;;24.15;22.85;;;20.20;99.90;;;;;;4964041;28;20053;-81
2022/08/31 10:21:51;;;;;;;25.70;24.20;;;20.30;99.90;;;;;;4969771;28;20076;-80
2022/08/31 10:24:42;;;;;;;24.98;23.40;;;20.20;99.90;;;;;;4978524;28;20044;-80
2022/08/31 10:27:30;;;;;;;23.83;22.52;;;20.40;99.90;;;;;;4986770;28;20409;-81
2022/08/31 10:30:10;;;;;;;24.63;22.92;;;20.60;99.90;;;;;;4964999;28;20569;-80
2022/08/31 10:33:11;;;;;;;23.75;22.35;;;20.80;99.90;;;;;;4978128;28;20054;-81
2022/08/31 10:35:59;;;;;;;24.88;23.27;;;20.90;99.90;;;;;;4952146;28;20045;-81
2022/08/31 10:38:36;;;;;;;26.35;24.83;;;21.10;99.90;;;;;;4978355;28;20049;-80
2022/08/31 10:41:11;;;;;;;24.42;23.13;;;21.10;99.90;;;;;;4979895;28;20368;-81
2022/08/31 10:44:22;;;;;;;24.85;23.45;;;21.80;99.90;;;;;;4985881;28;20045;-80
2022/08/31 10:46:53;;;;;;;24.58;22.98;;;21.40;99.90;;;;;;4991318;28;20042;-80
2022/08/31 10:49:21;;;;;;;25.38;23.98;;;21.20;99.90;;;;;;4986172;28;20063;-81
2022/08/31 10:52:10;;;;;;;25.33;23.85;;;21.30;99.90;;;;;;4968388;28;20125;-81
2022/08/31 10:54:50;;;;;;;24.48;23.17;;;21.60;99.90;;;;;;4957580;28;20038;-81
2022/08/31 10:57:28;;;;;;;26.25;24.85;;;22.10;99.90;;;;;;4969829;28;20045;-80
2022/08/31 11:00:03;;;;;;;23.90;22.60;;;22.00;99.90;;;;;;4961617;28;20051;-81
2022/08/31 11:02:44;;;;;;;25.55;24.25;;;21.50;99.90;;;;;;4988354;28;20050;-81
2022/08/31 11:05:55;;;;;;;25.30;23.70;;;21.10;99.90;;;;;;4981401;28;20451;-81
2022/08/31 11:08:48;;;;;;;24.48;22.95;;;20.60;99.90;;;;;;4952786;28;20049;-79
2022/08/31 11:11:34;;;;;;;25.60;24.13;;;20.70;99.90;;;;;;4983539;28;20034;-81
2022/08/31 11:14:43;;;;;;;25.40;23.80;;;20.60;99.90;;;;;;4967834;28;20152;-81
2022/08/31 11:17:40;;;;;;;24.83;23.13;;;20.70;99.90;;;;;;4971677;28;20053;-80
2022/08/31 11:20:46;;;;;;;23.67;22.02;;;20.80;99.90;;;;;;4986671;28;20077;-81
2022/08/31 11:23:33;;;;;;;24.75;23.35;;;20.90;99.90;;;;;;4932833;28;20309;-80
2022/08/31 11:26:14;;;;;;;24.92;23.38;;;21.30;99.90;;;;;;4975765;28;20104;-78
2022/08/31 11:28:53;;;;;;;24.88;23.48;;;21.50;99.90;;;;;;4981284;28;20046;-79
2022/08/31 11:31:23;;;;;;;24.60;23.23;;;21.50;99.90;;;;;;4987725;28;20093;-81
2022/08/31 11:33:59;;;;;;;25.33;23.20;;;21.50;99.90;;;;;;4978706;28;20089;-81
2022/08/31 11:36:48;;;;;;;24.60;23.20;;;21.80;99.90;;;;;;4972707;28;20309;-81
2022/08/31 11:39:25;;;;;;;24.08;22.77;;;22.10;99.90;;;;;;4974491;28;20050;-80
2022/08/31 11:41:57;;;;;;;24.73;23.33;;;22.30;99.90;;;;;;4972372;28;20042;-82
2022/08/31 11:44:35;;;;;;;25.15;23.50;;;22.40;99.90;;;;;;4969592;28;20213;-81
2022/08/31 11:47:03;;;;;;;25.75;23.92;;;23.00;99.90;;;;;;4967614;28;20054;-79
2022/08/31 11:49:44;;;;;;;24.85;23.40;;;22.80;99.90;;;;;;4983834;28;20038;-80
2022/08/31 11:52:39;;;;;;;24.73;23.25;;;22.10;99.90;;;;;;4973352;28;20050;-81
2022/08/31 11:55:20;;;;;;;25.60;24.08;;;21.80;99.90;;;;;;4994331;23;20105;-76
2022/08/31 11:58:06;;;;;;;23.67;22.27;;;22.00;99.90;;;;;;4987709;28;20041;-76
2022/08/31 12:00:57;;;;;;;24.25;22.75;;;22.00;99.90;;;;;;4997448;28;21690;-77
2022/08/31 12:03:41;;;;;;;24.42;22.92;;;21.60;99.90;;;;;;5002566;28;20076;-78
2022/08/31 12:06:36;;;;;;;25.65;24.17;;;21.10;99.90;;;;;;4998511;28;20761;-76
2022/08/31 12:09:28;;;;;;;26.27;24.67;;;21.00;99.90;;;;;;4950842;28;20054;-74
2022/08/31 12:12:21;;;;;;;24.85;23.45;;;20.90;99.90;;;;;;5002868;28;20058;-75
2022/08/31 12:14:51;;;;;;;24.73;23.25;;;21.20;99.90;;;;;;4981717;28;20112;-76
2022/08/31 12:17:35;;;;;;;24.23;22.73;;;20.90;99.90;;;;;;4982582;28;20098;-77
2022/08/31 12:20:17;;;;;;;23.83;22.48;;;20.70;99.90;;;;;;4980902;28;20074;-76
2022/08/31 12:26:06;;;;;;;25.65;24.15;;;21.40;99.90;;;;;;5002757;28;20034;-78
2022/08/31 12:29:13;;;;;;;25.55;24.08;;;21.80;99.90;;;;;;4998923;28;20499;-78
2022/08/31 12:31:52;;;;;;;23.75;22.25;;;21.60;99.90;;;;;;4988574;28;20632;-78
2022/08/31 12:34:19;;;;;;;25.10;23.60;;;21.60;99.90;;;;;;4990226;28;20105;-78
2022/08/31 12:36:50;;;;;;;24.85;23.33;;;21.50;99.90;;;;;;4997523;28;20132;-78
2022/08/31 12:39:27;;;;;;;24.20;22.90;;;21.30;99.90;;;;;;5000738;28;20061;-77
2022/08/31 12:42:04;;;;;;;23.42;22.02;;;21.50;99.90;;;;;;5000900;28;20050;-76
2022/08/31 12:44:45;;;;;;;24.75;23.25;;;21.50;99.90;;;;;;4996101;28;20429;-75
2022/08/31 12:47:40;;;;;;;24.95;23.48;;;21.50;99.90;;;;;;4998251;28;20144;-76
2022/08/31 12:50:26;;;;;;;;;;;21.60;99.90;;;;;;4995143;28;20042;-76
2022/08/31 12:53:10;;;;;;;24.35;22.95;;;21.80;99.90;;;;;;4994223;28;19929;-76
2022/08/31 12:55:54;;;;;;;25.50;23.77;;;21.60;99.90;;;;;;4995195;28;20041;-75
2022/08/31 12:58:59;;;;;;;24.50;23.00;;;21.60;99.90;;;;;;5010415;28;20046;-77
2022/08/31 13:01:27;;;;;;;24.45;23.05;;;22.20;99.90;;;;;;4993424;28;20046;-77
2022/08/31 13:03:58;;;;;;;24.27;22.88;;;22.10;99.90;;;;;;4993824;28;20040;-77
2022/08/31 13:06:31;;;;;;;26.33;24.63;;;22.00;99.90;;;;;;5007258;28;20101;-76
2022/08/31 13:08:59;;;;;;;25.80;24.27;;;21.90;99.90;;;;;;4989841;28;20049;-77
2022/08/31 13:11:29;;;;;;;25.52;24.00;;;21.90;99.90;;;;;;4985420;28;20042;-80
2022/08/31 13:14:21;;;;;;;26.20;24.60;;;22.40;99.90;;;;;;4991855;28;20042;-76
2022/08/31 13:17:10;;;;;;;25.33;23.75;;;22.50;99.90;;;;;;4965999;28;20049;-78
2022/08/31 13:19:48;;;;;;;25.45;23.95;;;22.30;99.90;;;;;;4957056;28;20093;-76
2022/08/31 13:22:29;;;;;;;26.02;24.48;;;22.50;99.90;;;;;;4963287;28;20447;-77
2022/08/31 13:25:11;;;;;;;26.98;25.27;;;22.50;99.90;;;;;;4981251;28;20578;-77
2022/08/31 13:27:46;;;;;;;25.20;23.60;;;22.30;99.90;;;;;;4959617;28;20252;-77